createdAt,value
2022-09-20T00:03:03.341Z,7.03
2022-09-20T00:06:09.707Z,7.50
2022-09-20T00:09:13.591Z,3.60
2022-09-20T00:12:17.351Z,6.72
2022-09-20T00:15:21.585Z,6.10
2022-09-20T00:18:26.709Z,7.30
2022-09-20T00:21:32.730Z,7.72
2022-09-20T00:24:37.117Z,4.45
2022-09-20T00:27:41.114Z,6.47
2022-09-20T00:30:45.184Z,6.78
2022-09-20T00:34:07.789Z,7.43
2022-09-20T00:37:11.908Z,8.25
2022-09-20T00:40:22.233Z,7.15
2022-09-20T00:43:42.206Z,9.82
2022-09-20T00:46:46.325Z,8.35
2022-09-20T00:49:54.724Z,5.68
2022-09-20T00:53:10.400Z,6.78
2022-09-20T00:56:29.718Z,4.90
2022-09-20T00:59:38.350Z,5.32
2022-09-20T01:02:48.183Z,5.35
2022-09-20T01:05:53.774Z,6.40
2022-09-20T01:09:02.522Z,8.02
2022-09-20T01:12:12.716Z,7.25
2022-09-20T01:15:17.113Z,6.20
2022-09-20T01:18:23.339Z,7.22
2022-09-20T01:21:28.878Z,7.22
2022-09-20T01:24:46.205Z,9.25
2022-09-20T01:27:53.991Z,8.23
2022-09-20T01:31:15.477Z,8.75
2022-09-20T01:34:48.120Z,7.85
2022-09-20T01:38:04.566Z,8.50
2022-09-20T01:41:13.753Z,10.23
2022-09-20T01:44:32.934Z,10.77
2022-09-20T01:47:47.222Z,9.50
2022-09-20T01:50:57.166Z,11.05
2022-09-20T01:54:30.690Z,8.05
2022-09-20T01:57:59.950Z,7.22
2022-09-20T02:01:52.134Z,11.02
2022-09-20T02:05:11.377Z,12.95
2022-09-20T02:08:18.487Z,8.50
2022-09-20T02:11:33.075Z,10.45
2022-09-20T02:15:02.388Z,9.35
2022-09-20T02:18:41.600Z,7.10
2022-09-20T02:22:03.817Z,8.00
2022-09-20T02:25:29.668Z,13.27
2022-09-20T02:29:01.635Z,6.70
2022-09-20T02:32:29.032Z,10.02
2022-09-20T02:35:36.191Z,13.10
2022-09-20T02:38:48.036Z,7.65
2022-09-20T02:41:57.194Z,8.57
2022-09-20T02:45:16.190Z,6.35
2022-09-20T02:48:27.650Z,14.52
2022-09-20T02:51:37.711Z,7.57
2022-09-20T02:55:10.497Z,8.60
2022-09-20T02:58:25.975Z,9.43
2022-09-20T03:01:48.363Z,10.05
2022-09-20T03:05:16.917Z,8.05
2022-09-20T03:08:33.781Z,10.65
2022-09-20T03:12:00.701Z,9.48
2022-09-20T03:15:34.509Z,10.88
2022-09-20T03:19:03.037Z,6.55
2022-09-20T03:22:20.343Z,7.07
2022-09-20T03:25:39.303Z,5.15
2022-09-20T03:29:02.216Z,10.52
2022-09-20T03:32:37.185Z,12.75
2022-09-20T03:35:50.430Z,9.05
2022-09-20T03:39:26.503Z,10.27
2022-09-20T03:42:31.269Z,11.38
2022-09-20T03:45:51.017Z,12.63
2022-09-20T03:49:32.813Z,9.25
2022-09-20T03:52:55.764Z,8.63
2022-09-20T03:56:30.766Z,10.15
2022-09-20T03:59:54.174Z,14.68
2022-09-20T04:03:28.483Z,10.48
2022-09-20T04:09:51.538Z,10.45
2022-09-20T04:13:21.767Z,11.20
2022-09-20T04:16:37.880Z,10.40
2022-09-20T04:19:48.942Z,7.78
2022-09-20T04:22:56.191Z,11.95
2022-09-20T04:26:01.700Z,8.43
2022-09-20T04:29:31.789Z,10.80
2022-09-20T04:32:36.589Z,12.93
2022-09-20T04:36:24.385Z,13.65
2022-09-20T04:39:34.377Z,10.27
2022-09-20T04:43:12.452Z,12.90
2022-09-20T04:46:28.771Z,9.60
2022-09-20T04:49:57.920Z,12.63
2022-09-20T04:53:23.121Z,12.57
2022-09-20T04:56:45.751Z,12.55
2022-09-20T05:00:19.782Z,14.05
2022-09-20T05:03:42.416Z,13.13
2022-09-20T05:06:58.246Z,14.00
2022-09-20T05:10:37.115Z,13.50
2022-09-20T05:14:13.715Z,15.07
2022-09-20T05:17:38.884Z,10.73
2022-09-20T05:21:07.368Z,13.23
2022-09-20T05:24:44.056Z,10.95
2022-09-20T05:28:05.417Z,14.10
2022-09-20T05:31:20.309Z,15.80
2022-09-20T05:34:34.245Z,12.98
2022-09-20T05:37:55.690Z,14.68
2022-09-20T05:41:38.016Z,12.32
2022-09-20T05:45:02.583Z,18.38
2022-09-20T05:48:40.390Z,12.48
2022-09-20T05:52:07.253Z,21.40
2022-09-20T05:55:11.158Z,15.60
2022-09-20T05:58:38.865Z,23.67
2022-09-20T06:02:01.670Z,19.45
2022-09-20T06:05:17.549Z,15.35
2022-09-20T06:08:33.511Z,17.50
2022-09-20T06:11:57.324Z,14.77
2022-09-20T06:15:17.809Z,18.25
2022-09-20T06:18:45.485Z,12.68
2022-09-20T06:21:58.139Z,16.65
2022-09-20T06:25:09.989Z,14.57
2022-09-20T06:28:18.810Z,16.33
2022-09-20T06:31:22.891Z,15.93
2022-09-20T06:34:28.431Z,17.63
2022-09-20T06:38:09.563Z,15.48
2022-09-20T06:41:29.847Z,17.98
2022-09-20T06:44:34.142Z,17.85
2022-09-20T06:47:38.957Z,15.00
2022-09-20T06:50:45.889Z,16.08
2022-09-20T06:53:50.057Z,19.05
2022-09-20T06:56:54.171Z,15.50
2022-09-20T06:59:58.428Z,13.20
2022-09-20T07:03:02.490Z,14.60
2022-09-20T07:06:06.681Z,18.83
2022-09-20T07:09:11.665Z,14.70
2022-09-20T07:12:15.442Z,15.05
2022-09-20T07:15:22.852Z,13.60
2022-09-20T07:18:27.476Z,15.95
2022-09-20T07:21:31.977Z,16.77
2022-09-20T07:24:36.402Z,15.05
2022-09-20T07:27:40.354Z,14.27
2022-09-20T07:30:46.336Z,19.38
2022-09-20T07:33:50.719Z,20.25
2022-09-20T07:36:57.296Z,15.27
2022-09-20T07:40:02.614Z,13.25
2022-09-20T07:43:06.783Z,16.50
2022-09-20T07:46:13.581Z,18.00
2022-09-20T07:49:17.327Z,18.83
2022-09-20T07:52:21.296Z,15.68
2022-09-20T07:55:25.391Z,19.35
2022-09-20T07:58:31.060Z,20.40
2022-09-20T08:01:35.041Z,19.20
2022-09-20T08:04:39.169Z,21.95
2022-09-20T08:07:43.105Z,17.00
2022-09-20T08:10:48.488Z,17.17
2022-09-20T08:14:09.467Z,15.48
2022-09-20T08:17:13.773Z,15.23
2022-09-20T08:20:18.237Z,16.17
2022-09-20T08:23:24.082Z,15.23
2022-09-20T08:26:31.110Z,17.20
2022-09-20T08:29:35.015Z,15.63
2022-09-20T08:32:41.168Z,16.05
2022-09-20T08:35:48.890Z,18.10
2022-09-20T08:42:33.623Z,15.38
2022-09-20T08:45:39.324Z,14.98
2022-09-20T08:48:43.519Z,13.98
2022-09-20T08:51:50.643Z,13.48
2022-09-20T08:54:57.373Z,13.27
2022-09-20T08:58:06.133Z,14.73
2022-09-20T09:01:26.388Z,14.60
2022-09-20T09:04:37.131Z,16.70
2022-09-20T09:07:40.834Z,16.23
2022-09-20T09:10:54.026Z,16.13
2022-09-20T09:14:41.508Z,19.45
2022-09-20T09:17:45.738Z,11.80
2022-09-20T09:20:51.295Z,10.35
2022-09-20T09:24:04.497Z,12.35
2022-09-20T09:27:17.502Z,13.73
2022-09-20T09:30:42.174Z,15.60
2022-09-20T09:33:47.037Z,18.60
2022-09-20T09:36:50.710Z,17.25
2022-09-20T09:40:09.263Z,10.98
2022-09-20T09:43:23.286Z,15.90
2022-09-20T09:46:32.354Z,10.90
2022-09-20T09:49:36.513Z,12.02
2022-09-20T09:52:40.761Z,15.68
2022-09-20T09:56:17.895Z,13.82
2022-09-20T09:59:21.965Z,16.98
2022-09-20T10:02:53.080Z,14.35
2022-09-20T10:06:13.725Z,15.23
2022-09-20T10:09:36.263Z,11.82
2022-09-20T10:13:20.021Z,18.60
2022-09-20T10:16:46.186Z,10.75
2022-09-20T10:20:10.501Z,8.98
2022-09-20T10:27:10.788Z,11.18
2022-09-20T10:30:25.550Z,10.35
2022-09-20T10:34:14.218Z,10.70
2022-09-20T10:37:49.209Z,11.55
2022-09-20T10:41:31.313Z,9.20
2022-09-20T10:44:51.177Z,10.38
2022-09-20T10:48:07.401Z,8.48
2022-09-20T10:51:48.137Z,10.18
2022-09-20T10:55:10.797Z,8.98
2022-09-20T10:59:00.219Z,11.57
2022-09-20T11:02:31.237Z,12.27
2022-09-20T11:05:43.397Z,11.43
2022-09-20T11:08:51.694Z,11.57
2022-09-20T11:12:05.442Z,12.43
2022-09-20T11:15:19.301Z,14.13
2022-09-20T11:18:28.246Z,13.07
2022-09-20T11:21:38.382Z,16.33
2022-09-20T11:24:48.601Z,15.23
2022-09-20T11:28:18.533Z,15.00
2022-09-20T11:31:28.298Z,10.77
2022-09-20T11:34:38.027Z,14.85
2022-09-20T11:37:50.465Z,10.27
2022-09-20T11:41:05.057Z,12.70
2022-09-20T11:44:16.646Z,11.95
2022-09-20T11:47:50.080Z,8.32
2022-09-20T11:51:09.209Z,10.57
2022-09-20T11:54:29.232Z,8.75
2022-09-20T11:57:33.835Z,9.75
2022-09-20T12:00:41.625Z,10.68
2022-09-20T12:03:50.905Z,6.95
2022-09-20T12:07:10.349Z,10.25
2022-09-20T12:10:28.228Z,7.97
2022-09-20T12:13:36.405Z,7.60
2022-09-20T12:16:46.128Z,8.80
2022-09-20T12:19:52.450Z,10.05
2022-09-20T12:23:35.199Z,6.03
2022-09-20T12:26:41.832Z,9.70
2022-09-20T12:30:03.335Z,7.28
2022-09-20T12:33:19.655Z,6.07
2022-09-20T12:36:24.511Z,11.20
2022-09-20T12:39:31.485Z,9.40
2022-09-20T12:42:35.570Z,7.03
2022-09-20T12:45:39.863Z,8.48
2022-09-20T12:48:43.877Z,6.15
2022-09-20T12:52:09.984Z,10.48
2022-09-20T12:55:32.297Z,6.78
2022-09-20T12:58:48.654Z,5.85
2022-09-20T13:01:52.627Z,6.38
2022-09-20T13:04:56.833Z,5.15
2022-09-20T13:08:16.087Z,6.97
2022-09-20T13:11:24.836Z,6.60
2022-09-20T13:14:34.165Z,5.00
2022-09-20T13:17:40.763Z,7.55
2022-09-20T13:20:45.574Z,9.20
2022-09-20T13:23:52.353Z,6.63
2022-09-20T13:27:11.934Z,6.80
2022-09-20T13:30:25.098Z,4.28
2022-09-20T13:33:29.349Z,8.30
2022-09-20T13:36:33.470Z,5.28
2022-09-20T13:39:37.765Z,9.02
2022-09-20T13:42:42.273Z,5.40
2022-09-20T13:45:48.366Z,4.60
2022-09-20T13:48:59.678Z,7.55
2022-09-20T13:52:22.093Z,3.35
2022-09-20T13:55:40.475Z,6.90
2022-09-20T13:58:44.568Z,6.70
2022-09-20T14:01:54.831Z,9.90
2022-09-20T14:05:02.505Z,5.20
2022-09-20T14:08:07.445Z,5.57
2022-09-20T14:11:27.969Z,5.10
2022-09-20T14:14:34.455Z,5.45
2022-09-20T14:17:39.216Z,7.15
2022-09-20T14:20:46.486Z,4.93
2022-09-20T14:23:57.254Z,5.40
2022-09-20T14:27:06.616Z,5.63
2022-09-20T14:30:31.538Z,6.28
2022-09-20T14:33:41.432Z,5.40
2022-09-20T14:36:48.501Z,5.45
2022-09-20T14:39:58.128Z,5.88
2022-09-20T14:43:05.644Z,4.40
2022-09-20T14:46:19.130Z,3.58
2022-09-20T14:49:25.917Z,3.97
2022-09-20T14:52:38.271Z,5.07
2022-09-20T14:56:03.929Z,5.18
2022-09-20T14:59:17.086Z,5.10
2022-09-20T15:02:21.454Z,6.38
2022-09-20T15:05:27.286Z,5.70
2022-09-20T15:08:33.530Z,4.20
2022-09-20T15:11:37.670Z,2.40
2022-09-20T15:14:42.467Z,2.92
2022-09-20T15:17:47.210Z,4.05
2022-09-20T15:20:51.510Z,3.75
2022-09-20T15:23:55.737Z,3.45
2022-09-20T15:27:00.157Z,3.88
2022-09-20T15:30:04.976Z,3.17
2022-09-20T15:33:10.460Z,2.47
2022-09-20T15:36:14.750Z,7.80
2022-09-20T15:39:18.669Z,4.28
2022-09-20T15:42:23.831Z,2.72
2022-09-20T15:45:28.170Z,5.07
2022-09-20T15:48:32.510Z,3.63
2022-09-20T15:51:37.530Z,3.35
2022-09-20T15:54:41.268Z,9.50
2022-09-20T15:57:45.718Z,4.85
2022-09-20T16:00:49.844Z,3.92
2022-09-20T16:03:54.945Z,5.55
2022-09-20T16:06:58.850Z,4.00
2022-09-20T16:10:03.313Z,4.63
2022-09-20T16:13:07.395Z,3.72
2022-09-20T16:16:13.424Z,5.13
2022-09-20T16:19:17.942Z,5.57
2022-09-20T16:22:22.230Z,4.35
2022-09-20T16:25:26.226Z,5.05
2022-09-20T16:28:30.217Z,4.93
2022-09-20T16:31:44.848Z,4.95
2022-09-20T16:34:49.829Z,6.70
2022-09-20T16:37:54.171Z,6.88
2022-09-20T16:41:01.774Z,4.80
2022-09-20T16:44:06.765Z,5.78
2022-09-20T16:47:20.079Z,5.63
2022-09-20T16:50:24.442Z,5.43
2022-09-20T16:53:28.849Z,6.65
2022-09-20T16:56:35.100Z,4.82
2022-09-20T16:59:39.218Z,7.20
2022-09-20T17:02:47.634Z,3.00
2022-09-20T17:05:51.719Z,4.68
2022-09-20T17:08:59.069Z,7.78
2022-09-20T17:12:09.352Z,5.53
2022-09-20T17:15:13.760Z,4.25
2022-09-20T17:18:17.853Z,3.13
2022-09-20T17:21:22.436Z,6.10
2022-09-20T17:24:26.854Z,6.55
2022-09-20T17:27:31.865Z,4.40
2022-09-20T17:30:35.687Z,5.72
2022-09-20T17:33:40.177Z,14.88
2022-09-20T17:36:46.369Z,8.07
2022-09-20T17:39:50.789Z,6.35
2022-09-20T17:42:55.755Z,4.68
2022-09-20T17:46:08.332Z,5.55
2022-09-20T17:49:15.220Z,7.82
2022-09-20T17:52:19.215Z,6.28
2022-09-20T17:55:28.141Z,6.53
2022-09-20T17:58:34.649Z,6.07
2022-09-20T18:01:40.195Z,7.78
2022-09-20T18:04:44.551Z,6.97
2022-09-20T18:07:51.536Z,5.88
2022-09-20T18:10:58.867Z,6.82
2022-09-20T18:14:06.258Z,8.68
2022-09-20T18:17:10.514Z,7.28
2022-09-20T18:20:14.835Z,7.03
2022-09-20T18:23:21.901Z,14.27
2022-09-20T18:26:30.066Z,7.13
2022-09-20T18:29:36.784Z,8.43
2022-09-20T18:32:41.853Z,8.82
2022-09-20T18:35:46.099Z,8.35
2022-09-20T18:38:53.298Z,7.45
2022-09-20T18:41:57.340Z,9.80
2022-09-20T18:45:01.549Z,8.80
2022-09-20T18:48:07.491Z,11.27
2022-09-20T18:51:11.763Z,7.05
2022-09-20T18:54:16.725Z,8.32
2022-09-20T18:57:20.855Z,8.60
2022-09-20T19:00:24.726Z,8.70
2022-09-20T19:03:50.661Z,10.40
2022-09-20T19:07:39.872Z,9.63
2022-09-20T19:10:51.036Z,11.73
2022-09-20T19:14:00.995Z,10.40
2022-09-20T19:17:07.119Z,14.13
2022-09-20T19:20:43.501Z,11.43
2022-09-20T19:24:15.271Z,8.90
2022-09-20T19:27:19.902Z,11.68
2022-09-20T19:30:24.631Z,9.65
2022-09-20T19:33:29.618Z,8.45
2022-09-20T19:36:59.409Z,10.05
2022-09-20T19:40:25.846Z,9.30
2022-09-20T19:43:47.527Z,8.48
2022-09-20T19:47:19.738Z,10.50
2022-09-20T19:50:33.386Z,12.25
2022-09-20T19:53:38.272Z,10.23
2022-09-20T19:56:55.465Z,12.20
2022-09-20T20:00:00.076Z,16.88
2022-09-20T20:03:04.151Z,14.68
2022-09-20T20:06:16.268Z,14.35
2022-09-20T20:09:28.056Z,18.98
2022-09-20T20:12:50.275Z,12.80
2022-09-20T20:16:01.746Z,11.88
2022-09-20T20:19:24.880Z,15.25
2022-09-20T20:22:56.776Z,13.13
2022-09-20T20:26:23.746Z,14.13
2022-09-20T20:29:28.172Z,13.95
2022-09-20T20:32:32.361Z,10.65
2022-09-20T20:35:37.396Z,11.48
2022-09-20T20:38:43.650Z,14.93
2022-09-20T20:41:52.562Z,9.38
2022-09-20T20:44:57.095Z,9.93
2022-09-20T20:48:01.605Z,10.48
2022-09-20T20:51:09.709Z,9.75
2022-09-20T20:54:14.225Z,10.77
2022-09-20T20:57:18.878Z,12.32
2022-09-20T21:00:22.783Z,9.02
2022-09-20T21:03:26.805Z,9.02
2022-09-20T21:06:34.331Z,8.90
2022-09-20T21:09:39.670Z,10.05
2022-09-20T21:12:43.797Z,13.13
2022-09-20T21:15:48.724Z,11.07
2022-09-20T21:18:52.558Z,9.18
2022-09-20T21:21:56.576Z,9.27
2022-09-20T21:25:00.581Z,9.70
2022-09-20T21:28:04.223Z,11.70
2022-09-20T21:31:09.506Z,11.90
2022-09-20T21:34:15.554Z,10.75
2022-09-20T21:37:19.231Z,8.25
2022-09-20T21:40:23.946Z,9.50
2022-09-20T21:43:27.974Z,6.82
2022-09-20T21:46:34.421Z,7.90
2022-09-20T21:49:38.260Z,7.82
2022-09-20T21:52:47.825Z,8.10
2022-09-20T21:56:04.219Z,8.90
2022-09-20T21:59:08.470Z,12.55
2022-09-20T22:02:12.808Z,8.75
2022-09-20T22:05:16.572Z,8.35
2022-09-20T22:08:20.463Z,10.60
2022-09-20T22:11:26.687Z,11.40
2022-09-20T22:14:30.923Z,8.20
2022-09-20T22:17:34.786Z,8.98
2022-09-20T22:20:38.639Z,8.80
2022-09-20T22:23:42.927Z,10.15
2022-09-20T22:26:49.746Z,7.13
2022-09-20T22:29:54.147Z,10.20
2022-09-20T22:32:58.336Z,6.72
2022-09-20T22:36:03.635Z,7.88
2022-09-20T22:39:09.844Z,11.30
2022-09-20T22:42:14.073Z,8.18
2022-09-20T22:45:18.293Z,8.93
2022-09-20T22:48:22.286Z,9.02
2022-09-20T22:51:33.242Z,9.70
2022-09-20T22:54:37.491Z,7.78
2022-09-20T22:57:41.466Z,8.45
2022-09-20T23:00:45.696Z,11.00
2022-09-20T23:04:13.326Z,12.57
2022-09-20T23:07:17.308Z,9.23
2022-09-20T23:10:21.312Z,7.05
2022-09-20T23:13:25.737Z,7.82
2022-09-20T23:16:32.241Z,8.05
2022-09-20T23:19:36.119Z,9.73
2022-09-20T23:22:40.268Z,12.98
2022-09-20T23:25:44.498Z,8.07
2022-09-20T23:28:54.827Z,7.18
2022-09-20T23:31:58.642Z,10.93
2022-09-20T23:35:02.375Z,11.45
2022-09-20T23:38:06.336Z,10.77
2022-09-20T23:41:14.007Z,7.20
2022-09-20T23:44:18.352Z,9.77
2022-09-20T23:47:22.427Z,8.35
2022-09-20T23:50:26.659Z,10.52
2022-09-20T23:53:31.751Z,7.68
2022-09-20T23:56:36.388Z,9.30
2022-09-20T23:59:40.912Z,7.43
